Terminal Aerodrome Forecast
Issued by NWS Bismarck, ND

Home | Current Version | Previous Version | Text Only | Print | Product List | Glossary On
Versions: 1 2 3 4 5 6 7 8 9 10 11 12 13 14 15 16
466
FTUS43 KBIS 221120
TAFISN
TAF
KISN 221120Z 2212/2312 02012KT P6SM -RA OVC090
     FM221600 02013KT P6SM VCSH BKN080 OVC130
     FM230100 36007KT P6SM BKN060
     FM231000 33004KT P6SM OVC030=

USA.gov is the U.S. government's official web portal to all federal, state and local government web resources and services.